createdAt,value
2022-08-17T00:00:05.665Z,29.70
2022-08-17T00:02:32.709Z,30.40
2022-08-17T00:05:05.677Z,30.73
2022-08-17T00:07:32.601Z,30.00
2022-08-17T00:09:59.641Z,28.92
2022-08-17T00:12:43.155Z,31.00
2022-08-17T00:15:14.366Z,30.42
2022-08-17T00:17:44.535Z,30.65
2022-08-17T00:20:13.323Z,29.65
2022-08-17T00:22:41.914Z,29.10
2022-08-17T00:25:14.993Z,29.13
2022-08-17T00:27:42.166Z,29.67
2022-08-17T00:30:12.025Z,29.83
2022-08-17T00:33:15.013Z,29.02
2022-08-17T00:35:30.932Z,29.45
2022-08-17T00:37:57.840Z,29.23
2022-08-17T00:40:24.955Z,30.80
2022-08-17T00:42:53.279Z,29.60
2022-08-17T00:45:21.020Z,27.88
2022-08-17T00:47:49.396Z,29.80
2022-08-17T00:50:19.609Z,28.03
2022-08-17T00:52:55.273Z,27.13
2022-08-17T00:55:24.788Z,26.80
2022-08-17T00:57:57.727Z,27.05
2022-08-17T01:00:30.381Z,26.77
2022-08-17T01:03:13.884Z,26.20
2022-08-17T01:05:42.587Z,25.90
2022-08-17T01:08:13.362Z,25.85
2022-08-17T01:10:59.735Z,25.40
2022-08-17T01:13:40.835Z,24.60
2022-08-17T01:16:26.190Z,25.37
2022-08-17T01:18:59.957Z,23.17
2022-08-17T01:21:47.537Z,23.75
2022-08-17T01:24:15.247Z,23.13
2022-08-17T01:26:43.492Z,22.92
2022-08-17T01:29:11.497Z,21.80
2022-08-17T01:31:45.817Z,21.98
2022-08-17T01:34:16.262Z,20.45
2022-08-17T01:36:48.062Z,21.95
2022-08-17T01:39:31.822Z,23.13
2022-08-17T01:42:21.762Z,21.30
2022-08-17T01:44:49.345Z,22.73
2022-08-17T01:47:16.265Z,24.30
2022-08-17T01:49:44.569Z,24.33
2022-08-17T01:52:13.083Z,26.10
2022-08-17T01:54:45.480Z,26.60
2022-08-17T01:57:12.906Z,26.80
2022-08-17T01:59:40.044Z,27.70
2022-08-17T02:02:07.768Z,27.10
2022-08-17T02:04:34.866Z,29.50
2022-08-17T02:07:02.064Z,27.73
2022-08-17T02:09:30.286Z,26.20
2022-08-17T02:11:59.805Z,28.58
2022-08-17T02:14:46.733Z,28.17
2022-08-17T02:17:13.899Z,28.15
2022-08-17T02:19:41.179Z,31.07
2022-08-17T02:22:08.218Z,30.88
2022-08-17T02:25:00.889Z,32.22
2022-08-17T02:27:25.019Z,32.10
2022-08-17T02:29:52.174Z,29.92
2022-08-17T02:32:27.970Z,28.57
2022-08-17T02:34:57.888Z,25.77
2022-08-17T02:37:26.587Z,26.67
2022-08-17T02:39:54.010Z,27.42
2022-08-17T02:42:29.469Z,26.25
2022-08-17T02:44:56.419Z,25.43
2022-08-17T02:47:24.484Z,25.27
2022-08-17T02:49:55.891Z,24.48
2022-08-17T02:52:42.893Z,25.05
2022-08-17T02:55:26.729Z,26.20
2022-08-17T02:57:54.503Z,25.30
2022-08-17T03:00:35.475Z,26.63
2022-08-17T03:03:05.285Z,26.23
2022-08-17T03:05:36.037Z,24.88
2022-08-17T03:08:04.695Z,25.42
2022-08-17T03:10:31.720Z,25.80
2022-08-17T03:12:59.637Z,25.45
2022-08-17T03:15:31.388Z,23.83
2022-08-17T03:18:00.217Z,23.85
2022-08-17T03:20:30.055Z,22.10
2022-08-17T03:23:02.935Z,19.70
2022-08-17T03:25:37.706Z,20.05
2022-08-17T03:28:07.051Z,19.42
2022-08-17T03:30:34.756Z,18.17
2022-08-17T03:33:05.374Z,19.13
2022-08-17T03:35:34.771Z,18.87
2022-08-17T03:38:01.756Z,20.17
2022-08-17T03:40:36.978Z,19.88
2022-08-17T03:43:18.754Z,17.85
2022-08-17T03:46:04.503Z,19.23
2022-08-17T03:48:51.517Z,20.37
2022-08-17T03:51:43.816Z,20.08
2022-08-17T03:54:31.205Z,18.95
2022-08-17T03:57:09.641Z,18.45
2022-08-17T03:59:38.065Z,17.17
2022-08-17T04:02:11.744Z,16.73
2022-08-17T04:04:39.519Z,16.77
2022-08-17T04:07:07.329Z,16.83
2022-08-17T04:09:34.906Z,16.25
2022-08-17T04:12:02.556Z,14.93
2022-08-17T04:14:36.276Z,15.03
2022-08-17T04:17:21.130Z,15.20
2022-08-17T04:19:48.074Z,14.07
2022-08-17T04:22:32.737Z,15.40
2022-08-17T04:25:09.498Z,14.95
2022-08-17T04:27:37.092Z,15.90
2022-08-17T04:30:07.186Z,15.00
2022-08-17T04:33:07.311Z,14.95
2022-08-17T04:35:42.121Z,17.38
2022-08-17T04:38:13.507Z,17.90
2022-08-17T04:40:59.443Z,18.73
2022-08-17T04:43:28.692Z,19.75
2022-08-17T04:46:03.042Z,18.90
2022-08-17T04:48:36.328Z,18.17
2022-08-17T04:51:13.188Z,20.73
2022-08-17T04:53:47.605Z,21.17
2022-08-17T04:56:22.168Z,22.33
2022-08-17T04:58:51.749Z,22.17
2022-08-17T05:01:24.025Z,23.30
2022-08-17T05:03:56.775Z,23.33
2022-08-17T05:06:24.431Z,21.90
2022-08-17T05:08:51.846Z,21.85
2022-08-17T05:11:18.886Z,20.17
2022-08-17T05:13:45.991Z,20.27
2022-08-17T05:16:13.245Z,20.02
2022-08-17T05:18:40.228Z,19.17
2022-08-17T05:21:07.491Z,19.77
2022-08-17T05:23:41.808Z,18.85
2022-08-17T05:26:23.135Z,19.17
2022-08-17T05:29:00.375Z,18.58
2022-08-17T05:31:30.723Z,17.17
2022-08-17T05:33:57.955Z,17.48
2022-08-17T05:36:41.902Z,15.68
2022-08-17T05:39:15.882Z,13.82
2022-08-17T05:41:46.925Z,12.98
2022-08-17T05:44:14.111Z,12.80
2022-08-17T05:46:45.776Z,10.98
2022-08-17T05:49:15.535Z,10.85
2022-08-17T05:52:21.025Z,9.52
2022-08-17T05:55:41.592Z,8.32
2022-08-17T05:58:18.505Z,8.23
2022-08-17T06:01:18.720Z,8.38
2022-08-17T06:04:06.462Z,7.63
2022-08-17T06:06:52.426Z,8.00
2022-08-17T06:09:40.100Z,7.65
2022-08-17T06:12:47.231Z,9.03
2022-08-17T06:15:53.657Z,8.18
2022-08-17T06:18:23.720Z,8.90
2022-08-17T06:20:56.688Z,8.85
2022-08-17T06:23:41.749Z,8.45
2022-08-17T06:26:20.529Z,9.83
2022-08-17T06:29:22.297Z,9.95
2022-08-17T06:31:50.902Z,9.23
2022-08-17T06:34:19.344Z,10.63
2022-08-17T06:37:31.396Z,11.30
2022-08-17T06:40:34.617Z,11.03
2022-08-17T06:43:26.106Z,11.73
2022-08-17T06:46:07.731Z,11.35
2022-08-17T06:48:48.927Z,11.90
2022-08-17T06:51:35.716Z,12.55
2022-08-17T06:54:24.508Z,13.70
2022-08-17T06:57:22.588Z,13.63
2022-08-17T07:00:12.976Z,12.77
2022-08-17T07:02:51.950Z,13.80
2022-08-17T07:05:26.016Z,15.00
2022-08-17T07:08:35.183Z,14.63
2022-08-17T07:11:15.794Z,14.77
2022-08-17T07:14:17.201Z,14.73
2022-08-17T07:16:52.829Z,15.35
2022-08-17T07:19:24.261Z,14.68
2022-08-17T07:22:21.986Z,14.20
2022-08-17T07:24:58.197Z,14.20
2022-08-17T07:27:33.218Z,14.25
2022-08-17T07:30:23.324Z,15.90
2022-08-17T07:32:57.729Z,14.98
2022-08-17T07:35:31.376Z,15.23
2022-08-17T07:38:27.600Z,15.75
2022-08-17T07:41:04.742Z,17.50
2022-08-17T07:43:40.364Z,19.20
2022-08-17T07:46:36.680Z,18.92
2022-08-17T07:49:03.583Z,19.07
2022-08-17T07:51:45.442Z,19.33
2022-08-17T07:54:22.705Z,20.92
2022-08-17T07:56:52.435Z,22.85
2022-08-17T07:59:35.085Z,21.60
2022-08-17T08:02:25.766Z,24.30
2022-08-17T08:05:30.833Z,21.17
2022-08-17T08:08:26.651Z,24.55
2022-08-17T08:11:03.650Z,23.83
2022-08-17T08:13:32.315Z,23.38
2022-08-17T08:16:19.757Z,23.37
2022-08-17T08:18:54.664Z,25.02
2022-08-17T08:21:36.861Z,19.15
2022-08-17T08:24:19.471Z,13.90
2022-08-17T08:27:23.374Z,13.52
2022-08-17T08:30:06.825Z,13.20
2022-08-17T08:33:10.949Z,13.50
2022-08-17T08:35:47.116Z,10.90
2022-08-17T08:38:35.495Z,9.90
2022-08-17T08:41:52.401Z,10.15
2022-08-17T08:44:59.899Z,9.67
2022-08-17T08:47:45.947Z,10.25
2022-08-17T08:50:38.730Z,8.82
2022-08-17T08:53:18.944Z,9.57
2022-08-17T08:55:54.378Z,10.75
2022-08-17T08:59:10.036Z,10.37
2022-08-17T09:02:00.306Z,10.60
2022-08-17T09:05:10.679Z,9.80
2022-08-17T09:07:54.749Z,9.43
2022-08-17T09:10:46.272Z,9.90
2022-08-17T09:13:40.020Z,9.47
2022-08-17T09:16:16.823Z,8.52
2022-08-17T09:19:00.480Z,8.38
2022-08-17T09:21:53.028Z,8.27
2022-08-17T09:24:44.628Z,8.73
2022-08-17T09:27:28.123Z,9.00
2022-08-17T09:30:10.169Z,9.63
2022-08-17T09:32:44.208Z,9.43
2022-08-17T09:35:24.966Z,10.48
2022-08-17T09:38:20.394Z,11.30
2022-08-17T09:41:15.690Z,11.53
2022-08-17T09:44:08.570Z,13.10
2022-08-17T09:47:45.315Z,14.75
2022-08-17T09:51:05.378Z,15.88
2022-08-17T09:53:36.563Z,15.98
2022-08-17T09:56:46.181Z,16.57
2022-08-17T09:59:40.186Z,14.35
2022-08-17T10:02:54.281Z,15.07
2022-08-17T10:05:46.185Z,14.75
2022-08-17T10:09:08.299Z,14.07
2022-08-17T10:12:17.416Z,14.80
2022-08-17T10:15:42.473Z,14.68
2022-08-17T10:18:56.472Z,16.10
2022-08-17T10:21:44.353Z,11.85
2022-08-17T10:25:22.115Z,11.48
2022-08-17T10:27:52.474Z,10.43
2022-08-17T10:30:27.777Z,11.23
2022-08-17T10:33:06.593Z,10.32
2022-08-17T10:36:10.638Z,10.82
2022-08-17T10:38:56.781Z,10.68
2022-08-17T10:41:40.778Z,10.33
2022-08-17T10:44:38.759Z,12.02
2022-08-17T10:47:16.213Z,11.75
2022-08-17T10:49:54.044Z,12.15
2022-08-17T10:52:25.801Z,12.57
2022-08-17T10:54:54.877Z,12.50
2022-08-17T10:57:41.878Z,13.25
2022-08-17T11:00:27.887Z,13.27
2022-08-17T11:02:57.320Z,13.80
2022-08-17T11:06:09.425Z,13.77
2022-08-17T11:09:31.204Z,15.03
2022-08-17T11:12:17.420Z,14.82
2022-08-17T11:14:57.760Z,13.35
2022-08-17T11:17:49.567Z,14.77
2022-08-17T11:20:35.677Z,15.48
2022-08-17T11:23:48.986Z,15.27
2022-08-17T11:26:27.164Z,17.75
2022-08-17T11:29:01.453Z,19.45
2022-08-17T11:31:39.901Z,18.02
2022-08-17T11:34:14.473Z,22.20
2022-08-17T11:37:26.903Z,19.67
2022-08-17T11:40:56.335Z,23.85
2022-08-17T11:43:45.717Z,24.45
2022-08-17T11:47:01.290Z,25.00
2022-08-17T11:50:15.489Z,26.20
2022-08-17T11:52:49.782Z,30.07
2022-08-17T11:55:44.413Z,27.50
2022-08-17T11:58:45.821Z,31.50
2022-08-17T12:01:26.781Z,31.98
2022-08-17T12:04:25.684Z,31.27
2022-08-17T12:07:18.396Z,30.93
2022-08-17T12:09:50.209Z,32.15
2022-08-17T12:12:29.594Z,33.05
2022-08-17T12:15:10.210Z,32.95
2022-08-17T12:17:41.586Z,34.75
2022-08-17T12:20:18.463Z,31.67
2022-08-17T12:23:04.236Z,34.00
2022-08-17T12:25:59.808Z,30.25
2022-08-17T12:28:30.646Z,34.95
2022-08-17T12:31:15.498Z,34.80
2022-08-17T12:33:45.922Z,33.50
2022-08-17T12:36:21.227Z,36.67
2022-08-17T12:39:13.290Z,34.78
2022-08-17T12:41:48.216Z,33.05
2022-08-17T12:44:24.780Z,33.75
2022-08-17T12:47:21.797Z,33.83
2022-08-17T12:49:53.360Z,37.13
2022-08-17T12:52:25.055Z,33.67
2022-08-17T12:54:59.456Z,32.85
2022-08-17T12:57:38.666Z,35.75
2022-08-17T13:00:47.272Z,33.90
2022-08-17T13:03:24.624Z,32.63
2022-08-17T13:06:06.073Z,32.80
2022-08-17T13:08:46.122Z,34.55
2022-08-17T13:11:18.850Z,34.40
2022-08-17T13:13:51.368Z,38.47
2022-08-17T13:16:26.633Z,33.95
2022-08-17T13:19:15.407Z,37.00
2022-08-17T13:21:56.182Z,36.88
2022-08-17T13:24:38.073Z,34.67
2022-08-17T13:27:10.274Z,36.43
2022-08-17T13:29:53.378Z,36.70
2022-08-17T13:32:43.642Z,40.20
2022-08-17T13:35:49.318Z,40.22
2022-08-17T13:38:47.028Z,39.58
2022-08-17T13:41:37.608Z,41.53
2022-08-17T13:44:30.220Z,42.28
2022-08-17T13:46:59.464Z,38.35
2022-08-17T13:49:48.050Z,40.45
2022-08-17T13:52:43.768Z,40.03
2022-08-17T13:55:22.135Z,35.43
2022-08-17T13:58:03.619Z,36.78
2022-08-17T14:00:36.667Z,39.08
2022-08-17T14:03:05.360Z,38.03
2022-08-17T14:05:33.756Z,32.60
2022-08-17T14:08:07.026Z,38.33
2022-08-17T14:10:36.278Z,36.78
2022-08-17T14:13:04.102Z,36.80
2022-08-17T14:15:54.966Z,34.88
2022-08-17T14:18:31.223Z,36.25
2022-08-17T14:21:08.229Z,38.97
2022-08-17T14:23:36.610Z,43.03
2022-08-17T14:26:04.002Z,36.13
2022-08-17T14:28:30.995Z,38.20
2022-08-17T14:31:00.266Z,37.80
2022-08-17T14:33:28.750Z,37.50
2022-08-17T14:35:57.364Z,38.38
2022-08-17T14:38:24.773Z,32.85
2022-08-17T14:40:52.065Z,36.80
2022-08-17T14:43:20.829Z,42.03
2022-08-17T14:45:47.872Z,42.03
2022-08-17T14:48:15.044Z,40.35
2022-08-17T14:50:44.189Z,40.33
2022-08-17T14:53:14.532Z,38.42
2022-08-17T14:55:41.835Z,35.60
2022-08-17T14:58:09.518Z,34.77
2022-08-17T15:00:37.433Z,34.35
2022-08-17T15:03:05.216Z,31.48
2022-08-17T15:05:36.518Z,32.15
2022-08-17T15:08:05.451Z,36.35
2022-08-17T15:10:33.261Z,37.17
2022-08-17T15:13:01.092Z,36.35
2022-08-17T15:15:29.074Z,36.95
2022-08-17T15:17:56.678Z,35.60
2022-08-17T15:20:28.386Z,35.83
2022-08-17T15:22:57.266Z,35.60
2022-08-17T15:25:28.810Z,35.20
2022-08-17T15:27:56.150Z,30.25
2022-08-17T15:30:24.526Z,33.08
2022-08-17T15:32:55.074Z,32.75
2022-08-17T15:35:28.213Z,31.57
2022-08-17T15:38:07.970Z,28.38
2022-08-17T15:40:41.289Z,29.52
2022-08-17T15:43:13.054Z,31.45
2022-08-17T15:45:41.099Z,34.70
2022-08-17T15:48:09.043Z,35.13
2022-08-17T15:50:36.742Z,29.33
2022-08-17T15:53:04.799Z,31.60
2022-08-17T15:55:34.128Z,34.00
2022-08-17T15:58:01.832Z,30.77
2022-08-17T16:00:29.364Z,26.87
2022-08-17T16:03:46.393Z,28.48
2022-08-17T16:05:50.041Z,27.08
2022-08-17T16:08:21.136Z,30.33
2022-08-17T16:10:50.180Z,25.02
2022-08-17T16:13:18.671Z,22.80
2022-08-17T16:15:56.213Z,20.80
2022-08-17T16:18:31.575Z,23.48
2022-08-17T16:21:21.374Z,23.02
2022-08-17T16:23:51.667Z,20.58
2022-08-17T16:26:19.405Z,21.87
2022-08-17T16:28:47.168Z,20.75
2022-08-17T16:31:14.646Z,21.05
2022-08-17T16:33:41.918Z,21.35
2022-08-17T16:36:09.238Z,21.30
2022-08-17T16:38:38.491Z,23.70
2022-08-17T16:41:06.623Z,22.75
2022-08-17T16:43:34.804Z,24.35
2022-08-17T16:46:02.595Z,22.73
2022-08-17T16:48:30.489Z,24.73
2022-08-17T16:51:04.433Z,23.30
2022-08-17T16:53:32.110Z,23.88
2022-08-17T16:55:59.067Z,23.38
2022-08-17T16:58:26.129Z,24.77
2022-08-17T17:00:54.312Z,25.75
2022-08-17T17:03:25.369Z,26.63
2022-08-17T17:06:18.770Z,27.33
2022-08-17T17:08:56.067Z,27.35
2022-08-17T17:11:40.773Z,26.80
2022-08-17T17:14:18.162Z,29.40
2022-08-17T17:16:52.244Z,27.47
2022-08-17T17:19:38.554Z,28.45
2022-08-17T17:22:34.467Z,30.00
2022-08-17T17:25:24.556Z,30.17
2022-08-17T17:28:06.566Z,27.77
2022-08-17T17:31:09.280Z,30.10
2022-08-17T17:33:48.740Z,28.92
2022-08-17T17:36:39.865Z,30.88
2022-08-17T17:39:20.825Z,29.58
2022-08-17T17:41:53.303Z,32.78
2022-08-17T17:44:37.430Z,32.03
2022-08-17T17:47:05.737Z,30.98
2022-08-17T17:49:44.042Z,33.20
2022-08-17T17:52:26.852Z,32.17
2022-08-17T17:55:17.936Z,31.05
2022-08-17T17:58:03.505Z,29.90
2022-08-17T18:00:50.593Z,33.88
2022-08-17T18:03:54.674Z,30.73
2022-08-17T18:06:33.549Z,34.55
2022-08-17T18:09:28.836Z,32.75
2022-08-17T18:12:26.437Z,33.17
2022-08-17T18:15:08.178Z,33.88
2022-08-17T18:17:36.186Z,33.53
2022-08-17T18:20:06.933Z,35.05
2022-08-17T18:22:34.093Z,34.42
2022-08-17T18:25:01.039Z,35.00
2022-08-17T18:27:34.800Z,33.10
2022-08-17T18:30:24.735Z,34.92
2022-08-17T18:32:51.909Z,35.13
2022-08-17T18:35:18.806Z,35.80
2022-08-17T18:38:33.587Z,33.80
2022-08-17T18:41:25.274Z,35.95
2022-08-17T18:44:06.413Z,37.10
2022-08-17T18:46:37.817Z,39.25
2022-08-17T18:49:27.041Z,40.22
2022-08-17T18:52:27.731Z,41.90
2022-08-17T18:55:24.377Z,43.47
2022-08-17T18:57:59.761Z,46.65
2022-08-17T19:00:40.701Z,43.95
2022-08-17T19:03:19.368Z,39.40
2022-08-17T19:05:53.767Z,41.70
2022-08-17T19:08:29.401Z,47.55
2022-08-17T19:11:05.660Z,48.00
2022-08-17T19:13:53.547Z,42.55
2022-08-17T19:17:07.809Z,43.45
2022-08-17T19:19:53.972Z,41.57
2022-08-17T19:22:42.167Z,37.92
2022-08-17T19:25:19.586Z,46.80
2022-08-17T19:28:21.613Z,45.45
2022-08-17T19:30:57.882Z,47.00
2022-08-17T19:33:25.523Z,47.57
2022-08-17T19:36:10.353Z,45.15
2022-08-17T19:38:50.745Z,47.00
2022-08-17T19:41:48.297Z,51.47
2022-08-17T19:45:02.940Z,47.70
2022-08-17T19:47:55.907Z,51.13
2022-08-17T19:50:56.909Z,45.47
2022-08-17T19:54:05.040Z,45.45
2022-08-17T19:57:11.292Z,37.65
2022-08-17T20:00:18.977Z,44.70
2022-08-17T20:02:58.853Z,40.83
2022-08-17T20:06:01.019Z,42.15
2022-08-17T20:08:31.562Z,38.85
2022-08-17T20:11:21.945Z,39.63
2022-08-17T20:14:14.585Z,39.05
2022-08-17T20:16:41.910Z,35.13
2022-08-17T20:19:24.953Z,38.85
2022-08-17T20:22:08.028Z,43.33
2022-08-17T20:24:53.250Z,37.42
2022-08-17T20:27:31.974Z,43.30
2022-08-17T20:30:10.216Z,40.90
2022-08-17T20:32:55.163Z,36.33
2022-08-17T20:35:30.179Z,37.78
2022-08-17T20:38:05.601Z,38.33
2022-08-17T20:40:54.920Z,37.35
2022-08-17T20:43:38.270Z,38.63
2022-08-17T20:46:36.029Z,33.58
2022-08-17T20:49:08.817Z,34.00
2022-08-17T20:52:13.323Z,34.05
2022-08-17T20:54:57.199Z,34.20
2022-08-17T20:57:33.033Z,35.70
2022-08-17T21:00:15.547Z,38.30
2022-08-17T21:02:50.049Z,31.40
2022-08-17T21:05:32.371Z,34.08
2022-08-17T21:08:16.568Z,34.13
2022-08-17T21:10:46.970Z,29.60
2022-08-17T21:13:15.438Z,29.70
2022-08-17T21:15:42.613Z,28.45
2022-08-17T21:18:26.075Z,32.22
2022-08-17T21:21:17.884Z,28.67
2022-08-17T21:24:19.239Z,24.90
2022-08-17T21:27:05.220Z,30.17
2022-08-17T21:29:33.929Z,28.70
2022-08-17T21:32:09.502Z,33.45
2022-08-17T21:35:23.123Z,31.15
2022-08-17T21:38:02.325Z,30.80
2022-08-17T21:40:33.321Z,26.90
2022-08-17T21:43:28.139Z,31.08
2022-08-17T21:46:11.101Z,24.05
2022-08-17T21:48:48.237Z,25.85
2022-08-17T21:51:23.785Z,21.73
2022-08-17T21:53:56.514Z,23.20
2022-08-17T21:56:29.720Z,25.80
2022-08-17T21:59:05.070Z,25.17
2022-08-17T22:01:39.564Z,25.73
2022-08-17T22:04:19.801Z,22.30
2022-08-17T22:06:56.805Z,20.25
2022-08-17T22:09:49.032Z,19.65
2022-08-17T22:12:24.363Z,21.08
2022-08-17T22:15:00.379Z,20.20
2022-08-17T22:17:35.864Z,23.57
2022-08-17T22:20:17.652Z,24.02
2022-08-17T22:23:12.392Z,24.50
2022-08-17T22:26:00.596Z,22.23
2022-08-17T22:28:52.679Z,22.52
2022-08-17T22:31:24.522Z,21.67
2022-08-17T22:34:14.364Z,20.48
2022-08-17T22:36:42.451Z,20.90
2022-08-17T22:39:09.290Z,20.33
2022-08-17T22:41:56.988Z,21.55
2022-08-17T22:44:44.566Z,19.67
2022-08-17T22:47:14.177Z,18.83
2022-08-17T22:49:59.395Z,18.60
2022-08-17T22:53:02.471Z,19.73
2022-08-17T22:55:51.036Z,20.35
2022-08-17T22:58:42.379Z,20.43
2022-08-17T23:01:32.239Z,19.27
2022-08-17T23:04:31.384Z,18.80
2022-08-17T23:06:58.644Z,19.63
2022-08-17T23:09:25.540Z,18.75
2022-08-17T23:11:58.426Z,19.73
2022-08-17T23:14:31.315Z,19.67
2022-08-17T23:16:59.422Z,20.25
2022-08-17T23:19:28.367Z,20.50
2022-08-17T23:21:57.267Z,19.02
2022-08-17T23:24:31.388Z,18.90
2022-08-17T23:26:58.920Z,18.52
2022-08-17T23:29:29.185Z,20.83
2022-08-17T23:31:59.529Z,20.25
2022-08-17T23:34:27.968Z,21.02
2022-08-17T23:36:55.722Z,20.07
2022-08-17T23:39:27.591Z,19.80
2022-08-17T23:41:58.168Z,19.95
2022-08-17T23:44:26.891Z,19.35
2022-08-17T23:46:54.505Z,18.98
2022-08-17T23:49:21.501Z,18.47
2022-08-17T23:51:49.668Z,19.58
2022-08-17T23:54:37.377Z,19.05
2022-08-17T23:57:05.089Z,19.63
2022-08-17T23:59:33.752Z,21.45
